sensor_id;sensor_type;location;lat;lon;timestamp;P1;durP1;ratioP1;P2;durP2;ratioP2
20298;SDS011;10308;42.688;23.256;2023-08-30T00:01:11;6.80;;;6.15;;
20298;SDS011;10308;42.688;23.256;2023-08-30T00:03:37;7.57;;;6.05;;
20298;SDS011;10308;42.688;23.256;2023-08-30T00:06:04;6.72;;;6.10;;
20298;SDS011;10308;42.688;23.256;2023-08-30T00:08:31;6.97;;;6.22;;
20298;SDS011;10308;42.688;23.256;2023-08-30T00:10:59;6.55;;;5.95;;
20298;SDS011;10308;42.688;23.256;2023-08-30T00:13:28;6.88;;;5.45;;
20298;SDS011;10308;42.688;23.256;2023-08-30T00:15:56;5.95;;;5.32;;
20298;SDS011;10308;42.688;23.256;2023-08-30T00:18:22;6.00;;;5.50;;
20298;SDS011;10308;42.688;23.256;2023-08-30T00:20:49;5.82;;;5.25;;
20298;SDS011;10308;42.688;23.256;2023-08-30T00:23:16;6.22;;;5.63;;
20298;SDS011;10308;42.688;23.256;2023-08-30T00:25:43;6.15;;;5.22;;
20298;SDS011;10308;42.688;23.256;2023-08-30T00:28:11;6.05;;;5.30;;
20298;SDS011;10308;42.688;23.256;2023-08-30T00:30:38;6.20;;;5.60;;
20298;SDS011;10308;42.688;23.256;2023-08-30T00:33:05;6.15;;;5.55;;
20298;SDS011;10308;42.688;23.256;2023-08-30T00:35:32;9.95;;;5.75;;
20298;SDS011;10308;42.688;23.256;2023-08-30T00:37:59;6.28;;;5.15;;
20298;SDS011;10308;42.688;23.256;2023-08-30T00:40:25;5.78;;;5.30;;
20298;SDS011;10308;42.688;23.256;2023-08-30T00:42:52;5.22;;;4.82;;
20298;SDS011;10308;42.688;23.256;2023-08-30T00:45:19;6.82;;;5.68;;
20298;SDS011;10308;42.688;23.256;2023-08-30T00:47:46;6.13;;;5.47;;
20298;SDS011;10308;42.688;23.256;2023-08-30T00:50:13;6.22;;;5.57;;
20298;SDS011;10308;42.688;23.256;2023-08-30T00:52:41;6.38;;;5.75;;
20298;SDS011;10308;42.688;23.256;2023-08-30T00:55:08;6.13;;;5.53;;
20298;SDS011;10308;42.688;23.256;2023-08-30T00:57:35;8.52;;;5.47;;
20298;SDS011;10308;42.688;23.256;2023-08-30T01:00:03;5.85;;;5.25;;
20298;SDS011;10308;42.688;23.256;2023-08-30T01:02:32;7.38;;;5.32;;
20298;SDS011;10308;42.688;23.256;2023-08-30T01:04:59;7.18;;;5.15;;
20298;SDS011;10308;42.688;23.256;2023-08-30T01:07:28;5.35;;;4.85;;
20298;SDS011;10308;42.688;23.256;2023-08-30T01:09:54;6.20;;;5.35;;
20298;SDS011;10308;42.688;23.256;2023-08-30T01:12:22;5.72;;;5.20;;
20298;SDS011;10308;42.688;23.256;2023-08-30T01:14:52;5.82;;;5.22;;
20298;SDS011;10308;42.688;23.256;2023-08-30T01:17:23;6.15;;;5.47;;
20298;SDS011;10308;42.688;23.256;2023-08-30T01:19:53;5.88;;;5.13;;
20298;SDS011;10308;42.688;23.256;2023-08-30T01:22:27;5.63;;;5.05;;
20298;SDS011;10308;42.688;23.256;2023-08-30T01:24:59;5.80;;;5.20;;
20298;SDS011;10308;42.688;23.256;2023-08-30T01:27:31;7.72;;;5.05;;
20298;SDS011;10308;42.688;23.256;2023-08-30T01:30:01;5.88;;;5.20;;
20298;SDS011;10308;42.688;23.256;2023-08-30T01:32:29;5.65;;;5.15;;
20298;SDS011;10308;42.688;23.256;2023-08-30T01:34:56;5.43;;;4.93;;
20298;SDS011;10308;42.688;23.256;2023-08-30T01:37:23;6.35;;;5.00;;
20298;SDS011;10308;42.688;23.256;2023-08-30T01:39:51;5.30;;;4.80;;
20298;SDS011;10308;42.688;23.256;2023-08-30T01:42:18;5.70;;;5.20;;
20298;SDS011;10308;42.688;23.256;2023-08-30T01:44:48;5.90;;;5.07;;
20298;SDS011;10308;42.688;23.256;2023-08-30T01:47:16;5.35;;;4.85;;
20298;SDS011;10308;42.688;23.256;2023-08-30T01:49:44;5.75;;;5.15;;
20298;SDS011;10308;42.688;23.256;2023-08-30T01:52:11;5.80;;;5.30;;
20298;SDS011;10308;42.688;23.256;2023-08-30T01:54:38;5.55;;;5.05;;
20298;SDS011;10308;42.688;23.256;2023-08-30T01:57:05;5.40;;;4.80;;
20298;SDS011;10308;42.688;23.256;2023-08-30T01:59:32;5.78;;;4.85;;
20298;SDS011;10308;42.688;23.256;2023-08-30T02:02:00;4.95;;;4.55;;
20298;SDS011;10308;42.688;23.256;2023-08-30T02:04:29;8.63;;;5.03;;
20298;SDS011;10308;42.688;23.256;2023-08-30T02:06:57;5.72;;;5.10;;
20298;SDS011;10308;42.688;23.256;2023-08-30T02:09:27;5.43;;;4.97;;
20298;SDS011;10308;42.688;23.256;2023-08-30T02:11:56;6.07;;;4.90;;
20298;SDS011;10308;42.688;23.256;2023-08-30T02:14:27;5.55;;;4.75;;
20298;SDS011;10308;42.688;23.256;2023-08-30T02:16:54;5.88;;;5.28;;
20298;SDS011;10308;42.688;23.256;2023-08-30T02:19:23;6.15;;;5.60;;
20298;SDS011;10308;42.688;23.256;2023-08-30T02:21:50;6.47;;;5.35;;
20298;SDS011;10308;42.688;23.256;2023-08-30T02:24:17;7.05;;;5.20;;
20298;SDS011;10308;42.688;23.256;2023-08-30T02:26:44;5.95;;;5.35;;
20298;SDS011;10308;42.688;23.256;2023-08-30T02:29:10;6.85;;;5.50;;
20298;SDS011;10308;42.688;23.256;2023-08-30T02:31:38;6.50;;;5.50;;
20298;SDS011;10308;42.688;23.256;2023-08-30T02:34:05;5.80;;;5.13;;
20298;SDS011;10308;42.688;23.256;2023-08-30T02:36:33;7.07;;;4.97;;
20298;SDS011;10308;42.688;23.256;2023-08-30T02:39:00;5.78;;;5.20;;
20298;SDS011;10308;42.688;23.256;2023-08-30T02:41:26;5.68;;;5.18;;
20298;SDS011;10308;42.688;23.256;2023-08-30T02:43:53;5.32;;;4.85;;
20298;SDS011;10308;42.688;23.256;2023-08-30T02:46:20;6.70;;;5.38;;
20298;SDS011;10308;42.688;23.256;2023-08-30T02:48:47;6.78;;;5.07;;
20298;SDS011;10308;42.688;23.256;2023-08-30T02:51:14;5.85;;;5.30;;
20298;SDS011;10308;42.688;23.256;2023-08-30T02:53:43;6.05;;;5.45;;
20298;SDS011;10308;42.688;23.256;2023-08-30T02:56:10;5.80;;;5.22;;
20298;SDS011;10308;42.688;23.256;2023-08-30T02:58:37;7.22;;;5.20;;
20298;SDS011;10308;42.688;23.256;2023-08-30T03:01:04;6.25;;;5.30;;
20298;SDS011;10308;42.688;23.256;2023-08-30T03:03:31;6.72;;;5.50;;
20298;SDS011;10308;42.688;23.256;2023-08-30T03:05:58;5.70;;;5.13;;
20298;SDS011;10308;42.688;23.256;2023-08-30T03:08:24;6.10;;;5.60;;
20298;SDS011;10308;42.688;23.256;2023-08-30T03:10:53;7.10;;;6.30;;
20298;SDS011;10308;42.688;23.256;2023-08-30T03:13:19;6.63;;;5.50;;
20298;SDS011;10308;42.688;23.256;2023-08-30T03:15:46;5.97;;;5.38;;
20298;SDS011;10308;42.688;23.256;2023-08-30T03:18:13;6.35;;;5.45;;
20298;SDS011;10308;42.688;23.256;2023-08-30T03:20:39;6.32;;;5.00;;
20298;SDS011;10308;42.688;23.256;2023-08-30T03:23:07;5.45;;;4.95;;
20298;SDS011;10308;42.688;23.256;2023-08-30T03:25:34;7.00;;;5.20;;
20298;SDS011;10308;42.688;23.256;2023-08-30T03:28:02;5.55;;;4.78;;
20298;SDS011;10308;42.688;23.256;2023-08-30T03:30:29;5.88;;;5.32;;
20298;SDS011;10308;42.688;23.256;2023-08-30T03:32:56;5.97;;;5.15;;
20298;SDS011;10308;42.688;23.256;2023-08-30T03:35:23;5.53;;;5.03;;
20298;SDS011;10308;42.688;23.256;2023-08-30T03:37:50;8.35;;;5.10;;
20298;SDS011;10308;42.688;23.256;2023-08-30T03:40:16;6.75;;;5.75;;
20298;SDS011;10308;42.688;23.256;2023-08-30T03:42:43;8.57;;;5.75;;
20298;SDS011;10308;42.688;23.256;2023-08-30T03:45:11;7.72;;;5.88;;
20298;SDS011;10308;42.688;23.256;2023-08-30T03:47:38;7.25;;;5.78;;
20298;SDS011;10308;42.688;23.256;2023-08-30T03:50:06;6.93;;;5.22;;
20298;SDS011;10308;42.688;23.256;2023-08-30T03:52:34;6.28;;;5.07;;
20298;SDS011;10308;42.688;23.256;2023-08-30T03:55:01;7.28;;;4.70;;
20298;SDS011;10308;42.688;23.256;2023-08-30T03:57:28;7.45;;;4.95;;
20298;SDS011;10308;42.688;23.256;2023-08-30T03:59:55;6.05;;;5.43;;
20298;SDS011;10308;42.688;23.256;2023-08-30T04:02:23;7.68;;;5.35;;
20298;SDS011;10308;42.688;23.256;2023-08-30T04:04:48;6.53;;;5.22;;
20298;SDS011;10308;42.688;23.256;2023-08-30T04:07:15;6.68;;;5.32;;
20298;SDS011;10308;42.688;23.256;2023-08-30T04:09:42;8.75;;;5.50;;
20298;SDS011;10308;42.688;23.256;2023-08-30T04:12:09;8.23;;;6.22;;
20298;SDS011;10308;42.688;23.256;2023-08-30T04:14:35;7.47;;;5.38;;
20298;SDS011;10308;42.688;23.256;2023-08-30T04:17:02;8.27;;;5.80;;
20298;SDS011;10308;42.688;23.256;2023-08-30T04:19:31;6.07;;;5.07;;
20298;SDS011;10308;42.688;23.256;2023-08-30T04:21:58;7.05;;;5.80;;
20298;SDS011;10308;42.688;23.256;2023-08-30T04:24:24;8.95;;;5.47;;
20298;SDS011;10308;42.688;23.256;2023-08-30T04:26:51;6.63;;;5.18;;
20298;SDS011;10308;42.688;23.256;2023-08-30T04:29:19;6.68;;;5.13;;
20298;SDS011;10308;42.688;23.256;2023-08-30T04:31:46;5.97;;;4.78;;
20298;SDS011;10308;42.688;23.256;2023-08-30T04:34:13;7.68;;;5.10;;
20298;SDS011;10308;42.688;23.256;2023-08-30T04:36:42;9.27;;;5.00;;
20298;SDS011;10308;42.688;23.256;2023-08-30T04:39:10;6.13;;;4.10;;
20298;SDS011;10308;42.688;23.256;2023-08-30T04:41:36;4.70;;;3.88;;
20298;SDS011;10308;42.688;23.256;2023-08-30T04:44:03;6.50;;;3.95;;
20298;SDS011;10308;42.688;23.256;2023-08-30T04:46:31;5.00;;;4.53;;
20298;SDS011;10308;42.688;23.256;2023-08-30T04:48:58;4.60;;;3.50;;
20298;SDS011;10308;42.688;23.256;2023-08-30T04:51:25;4.22;;;3.60;;
20298;SDS011;10308;42.688;23.256;2023-08-30T04:53:53;5.25;;;3.53;;
20298;SDS011;10308;42.688;23.256;2023-08-30T04:56:19;5.22;;;3.53;;
20298;SDS011;10308;42.688;23.256;2023-08-30T04:58:46;4.60;;;3.70;;
20298;SDS011;10308;42.688;23.256;2023-08-30T05:01:13;5.18;;;3.90;;
20298;SDS011;10308;42.688;23.256;2023-08-30T05:03:41;4.90;;;3.85;;
20298;SDS011;10308;42.688;23.256;2023-08-30T05:06:08;3.95;;;3.53;;
20298;SDS011;10308;42.688;23.256;2023-08-30T05:08:34;5.32;;;3.75;;
20298;SDS011;10308;42.688;23.256;2023-08-30T05:11:03;4.75;;;3.28;;
20298;SDS011;10308;42.688;23.256;2023-08-30T05:13:29;4.70;;;3.67;;
20298;SDS011;10308;42.688;23.256;2023-08-30T05:15:56;4.70;;;3.60;;
20298;SDS011;10308;42.688;23.256;2023-08-30T05:18:23;4.53;;;3.47;;
20298;SDS011;10308;42.688;23.256;2023-08-30T05:20:50;3.60;;;3.30;;
20298;SDS011;10308;42.688;23.256;2023-08-30T05:23:17;5.38;;;3.90;;
20298;SDS011;10308;42.688;23.256;2023-08-30T05:25:44;5.13;;;3.80;;
20298;SDS011;10308;42.688;23.256;2023-08-30T05:28:13;4.82;;;3.90;;
20298;SDS011;10308;42.688;23.256;2023-08-30T05:30:41;5.55;;;3.40;;
20298;SDS011;10308;42.688;23.256;2023-08-30T05:33:08;5.10;;;3.45;;
20298;SDS011;10308;42.688;23.256;2023-08-30T05:35:35;5.68;;;3.90;;
20298;SDS011;10308;42.688;23.256;2023-08-30T05:38:01;4.93;;;3.70;;
20298;SDS011;10308;42.688;23.256;2023-08-30T05:40:28;6.78;;;3.63;;
20298;SDS011;10308;42.688;23.256;2023-08-30T05:42:55;5.07;;;3.45;;
20298;SDS011;10308;42.688;23.256;2023-08-30T05:45:23;4.28;;;3.28;;
20298;SDS011;10308;42.688;23.256;2023-08-30T05:47:50;7.38;;;3.65;;
20298;SDS011;10308;42.688;23.256;2023-08-30T05:50:17;3.95;;;3.35;;
20298;SDS011;10308;42.688;23.256;2023-08-30T05:52:44;5.63;;;4.53;;
20298;SDS011;10308;42.688;23.256;2023-08-30T05:55:11;4.97;;;3.92;;
20298;SDS011;10308;42.688;23.256;2023-08-30T05:57:38;4.22;;;3.65;;
20298;SDS011;10308;42.688;23.256;2023-08-30T06:00:05;5.25;;;3.70;;
20298;SDS011;10308;42.688;23.256;2023-08-30T06:02:35;4.95;;;3.72;;
20298;SDS011;10308;42.688;23.256;2023-08-30T06:05:02;6.10;;;3.67;;
20298;SDS011;10308;42.688;23.256;2023-08-30T06:07:29;4.45;;;3.83;;
20298;SDS011;10308;42.688;23.256;2023-08-30T06:09:56;6.60;;;3.80;;
20298;SDS011;10308;42.688;23.256;2023-08-30T06:12:22;4.85;;;3.50;;
20298;SDS011;10308;42.688;23.256;2023-08-30T06:14:50;4.13;;;3.35;;
20298;SDS011;10308;42.688;23.256;2023-08-30T06:17:18;3.60;;;3.30;;
20298;SDS011;10308;42.688;23.256;2023-08-30T06:19:47;5.45;;;3.63;;
20298;SDS011;10308;42.688;23.256;2023-08-30T06:22:14;7.35;;;4.03;;
20298;SDS011;10308;42.688;23.256;2023-08-30T06:24:41;4.05;;;3.60;;
20298;SDS011;10308;42.688;23.256;2023-08-30T06:27:08;5.88;;;4.00;;
20298;SDS011;10308;42.688;23.256;2023-08-30T06:29:35;3.92;;;3.45;;
20298;SDS011;10308;42.688;23.256;2023-08-30T06:32:01;4.13;;;3.72;;
20298;SDS011;10308;42.688;23.256;2023-08-30T06:34:28;5.43;;;4.13;;
20298;SDS011;10308;42.688;23.256;2023-08-30T06:36:57;3.97;;;3.58;;
20298;SDS011;10308;42.688;23.256;2023-08-30T06:39:23;3.97;;;3.47;;
20298;SDS011;10308;42.688;23.256;2023-08-30T06:41:50;3.85;;;3.42;;
20298;SDS011;10308;42.688;23.256;2023-08-30T06:44:17;3.78;;;3.47;;
20298;SDS011;10308;42.688;23.256;2023-08-30T06:46:44;3.47;;;3.17;;
20298;SDS011;10308;42.688;23.256;2023-08-30T06:49:11;4.55;;;3.70;;
20298;SDS011;10308;42.688;23.256;2023-08-30T06:51:38;4.95;;;3.70;;
20298;SDS011;10308;42.688;23.256;2023-08-30T06:54:06;4.38;;;3.90;;
20298;SDS011;10308;42.688;23.256;2023-08-30T06:56:33;4.53;;;3.47;;
20298;SDS011;10308;42.688;23.256;2023-08-30T06:59:00;4.00;;;3.50;;
20298;SDS011;10308;42.688;23.256;2023-08-30T07:01:27;4.22;;;3.47;;
20298;SDS011;10308;42.688;23.256;2023-08-30T07:03:53;3.72;;;3.38;;
20298;SDS011;10308;42.688;23.256;2023-08-30T07:06:20;5.07;;;3.65;;
20298;SDS011;10308;42.688;23.256;2023-08-30T07:08:47;4.18;;;3.78;;
20298;SDS011;10308;42.688;23.256;2023-08-30T07:11:15;4.43;;;3.58;;
20298;SDS011;10308;42.688;23.256;2023-08-30T07:13:42;3.90;;;3.47;;
20298;SDS011;10308;42.688;23.256;2023-08-30T07:16:09;4.35;;;3.90;;
20298;SDS011;10308;42.688;23.256;2023-08-30T07:18:36;4.13;;;3.22;;
20298;SDS011;10308;42.688;23.256;2023-08-30T07:21:02;4.25;;;3.40;;
20298;SDS011;10308;42.688;23.256;2023-08-30T07:23:29;3.60;;;3.30;;
20298;SDS011;10308;42.688;23.256;2023-08-30T07:25:56;3.88;;;3.58;;
20298;SDS011;10308;42.688;23.256;2023-08-30T07:28:24;4.10;;;3.80;;
20298;SDS011;10308;42.688;23.256;2023-08-30T07:30:51;4.57;;;3.53;;
20298;SDS011;10308;42.688;23.256;2023-08-30T07:33:18;3.85;;;3.30;;
20298;SDS011;10308;42.688;23.256;2023-08-30T07:35:45;5.80;;;3.70;;
20298;SDS011;10308;42.688;23.256;2023-08-30T07:38:11;5.38;;;3.92;;
20298;SDS011;10308;42.688;23.256;2023-08-30T07:40:38;4.28;;;3.40;;
20298;SDS011;10308;42.688;23.256;2023-08-30T07:43:05;5.05;;;3.53;;
20298;SDS011;10308;42.688;23.256;2023-08-30T07:45:33;4.38;;;3.55;;
20298;SDS011;10308;42.688;23.256;2023-08-30T07:48:00;4.40;;;4.00;;
20298;SDS011;10308;42.688;23.256;2023-08-30T07:50:27;3.40;;;3.10;;
20298;SDS011;10308;42.688;23.256;2023-08-30T07:52:54;5.32;;;3.60;;
20298;SDS011;10308;42.688;23.256;2023-08-30T07:55:20;4.55;;;3.42;;
20298;SDS011;10308;42.688;23.256;2023-08-30T07:57:47;5.85;;;3.40;;
20298;SDS011;10308;42.688;23.256;2023-08-30T08:00:14;5.38;;;3.22;;
20298;SDS011;10308;42.688;23.256;2023-08-30T08:02:42;4.28;;;3.40;;
20298;SDS011;10308;42.688;23.256;2023-08-30T08:05:09;3.35;;;2.95;;
20298;SDS011;10308;42.688;23.256;2023-08-30T08:07:37;4.53;;;3.30;;
20298;SDS011;10308;42.688;23.256;2023-08-30T08:10:05;4.32;;;3.20;;
20298;SDS011;10308;42.688;23.256;2023-08-30T08:12:33;4.10;;;2.83;;
20298;SDS011;10308;42.688;23.256;2023-08-30T08:15:00;4.53;;;2.92;;
20298;SDS011;10308;42.688;23.256;2023-08-30T08:17:26;4.32;;;2.70;;
20298;SDS011;10308;42.688;23.256;2023-08-30T08:19:55;4.97;;;3.30;;
20298;SDS011;10308;42.688;23.256;2023-08-30T08:22:22;3.97;;;3.30;;
20298;SDS011;10308;42.688;23.256;2023-08-30T08:24:49;4.70;;;2.72;;
20298;SDS011;10308;42.688;23.256;2023-08-30T08:27:16;4.10;;;2.70;;
20298;SDS011;10308;42.688;23.256;2023-08-30T08:29:43;3.88;;;2.58;;
20298;SDS011;10308;42.688;23.256;2023-08-30T08:32:10;3.75;;;2.85;;
20298;SDS011;10308;42.688;23.256;2023-08-30T08:34:38;4.97;;;3.20;;
20298;SDS011;10308;42.688;23.256;2023-08-30T08:37:06;7.15;;;4.55;;
20298;SDS011;10308;42.688;23.256;2023-08-30T08:39:33;4.72;;;3.00;;
20298;SDS011;10308;42.688;23.256;2023-08-30T08:42:01;4.85;;;3.00;;
20298;SDS011;10308;42.688;23.256;2023-08-30T08:44:31;4.28;;;3.05;;
20298;SDS011;10308;42.688;23.256;2023-08-30T08:46:58;5.28;;;3.65;;
20298;SDS011;10308;42.688;23.256;2023-08-30T08:49:24;5.35;;;3.38;;
20298;SDS011;10308;42.688;23.256;2023-08-30T08:51:54;3.67;;;3.05;;
20298;SDS011;10308;42.688;23.256;2023-08-30T08:54:22;6.85;;;4.07;;
20298;SDS011;10308;42.688;23.256;2023-08-30T08:56:49;4.13;;;3.50;;
20298;SDS011;10308;42.688;23.256;2023-08-30T08:59:16;9.20;;;5.05;;
20298;SDS011;10308;42.688;23.256;2023-08-30T09:01:43;4.90;;;3.42;;
20298;SDS011;10308;42.688;23.256;2023-08-30T09:04:10;4.55;;;3.35;;
20298;SDS011;10308;42.688;23.256;2023-08-30T09:06:37;5.38;;;3.70;;
20298;SDS011;10308;42.688;23.256;2023-08-30T09:09:06;5.05;;;3.08;;
20298;SDS011;10308;42.688;23.256;2023-08-30T09:11:35;4.68;;;3.28;;
20298;SDS011;10308;42.688;23.256;2023-08-30T09:14:02;6.00;;;4.40;;
20298;SDS011;10308;42.688;23.256;2023-08-30T09:16:29;3.85;;;3.38;;
20298;SDS011;10308;42.688;23.256;2023-08-30T09:18:59;4.32;;;3.45;;
20298;SDS011;10308;42.688;23.256;2023-08-30T09:21:27;4.35;;;3.95;;
20298;SDS011;10308;42.688;23.256;2023-08-30T09:23:57;4.78;;;4.20;;
20298;SDS011;10308;42.688;23.256;2023-08-30T09:26:24;5.30;;;4.07;;
20298;SDS011;10308;42.688;23.256;2023-08-30T09:28:55;4.15;;;3.75;;
20298;SDS011;10308;42.688;23.256;2023-08-30T09:31:22;8.95;;;5.72;;
20298;SDS011;10308;42.688;23.256;2023-08-30T09:33:48;5.10;;;4.57;;
20298;SDS011;10308;42.688;23.256;2023-08-30T09:36:15;4.90;;;4.47;;
20298;SDS011;10308;42.688;23.256;2023-08-30T09:38:47;4.47;;;3.95;;
20298;SDS011;10308;42.688;23.256;2023-08-30T09:41:15;7.70;;;4.35;;
20298;SDS011;10308;42.688;23.256;2023-08-30T09:43:42;4.68;;;4.18;;
20298;SDS011;10308;42.688;23.256;2023-08-30T09:46:11;6.60;;;4.20;;
20298;SDS011;10308;42.688;23.256;2023-08-30T09:48:38;5.28;;;3.85;;
20298;SDS011;10308;42.688;23.256;2023-08-30T09:51:05;4.78;;;4.00;;
20298;SDS011;10308;42.688;23.256;2023-08-30T09:53:42;4.57;;;4.18;;
20298;SDS011;10308;42.688;23.256;2023-08-30T09:56:11;5.35;;;4.32;;
20298;SDS011;10308;42.688;23.256;2023-08-30T09:58:39;5.22;;;4.72;;
20298;SDS011;10308;42.688;23.256;2023-08-30T10:01:07;4.95;;;4.22;;
20298;SDS011;10308;42.688;23.256;2023-08-30T10:03:36;4.75;;;4.35;;
20298;SDS011;10308;42.688;23.256;2023-08-30T10:06:03;5.65;;;5.10;;
20298;SDS011;10308;42.688;23.256;2023-08-30T10:08:31;6.30;;;4.65;;
20298;SDS011;10308;42.688;23.256;2023-08-30T10:11:02;5.78;;;4.68;;
20298;SDS011;10308;42.688;23.256;2023-08-30T10:13:29;5.18;;;4.65;;
20298;SDS011;10308;42.688;23.256;2023-08-30T10:15:58;6.28;;;4.60;;
20298;SDS011;10308;42.688;23.256;2023-08-30T10:18:28;5.38;;;4.88;;
20298;SDS011;10308;42.688;23.256;2023-08-30T10:20:57;5.93;;;4.55;;
20298;SDS011;10308;42.688;23.256;2023-08-30T10:23:25;5.00;;;4.55;;
20298;SDS011;10308;42.688;23.256;2023-08-30T10:25:53;6.07;;;4.95;;
20298;SDS011;10308;42.688;23.256;2023-08-30T10:28:20;5.60;;;4.57;;
20298;SDS011;10308;42.688;23.256;2023-08-30T10:30:48;5.70;;;4.45;;
20298;SDS011;10308;42.688;23.256;2023-08-30T10:33:14;5.07;;;4.57;;
20298;SDS011;10308;42.688;23.256;2023-08-30T10:35:47;4.57;;;4.18;;
20298;SDS011;10308;42.688;23.256;2023-08-30T10:38:23;5.28;;;4.05;;
20298;SDS011;10308;42.688;23.256;2023-08-30T10:40:51;5.38;;;4.63;;
20298;SDS011;10308;42.688;23.256;2023-08-30T10:43:27;5.65;;;5.10;;
20298;SDS011;10308;42.688;23.256;2023-08-30T10:45:59;6.53;;;4.57;;
20298;SDS011;10308;42.688;23.256;2023-08-30T10:48:36;6.55;;;4.97;;
20298;SDS011;10308;42.688;23.256;2023-08-30T10:51:03;7.25;;;4.90;;
20298;SDS011;10308;42.688;23.256;2023-08-30T10:53:33;6.43;;;5.18;;
20298;SDS011;10308;42.688;23.256;2023-08-30T10:56:07;6.05;;;5.38;;
20298;SDS011;10308;42.688;23.256;2023-08-30T10:58:43;6.10;;;5.32;;
20298;SDS011;10308;42.688;23.256;2023-08-30T11:01:10;6.72;;;5.47;;
20298;SDS011;10308;42.688;23.256;2023-08-30T11:03:38;5.43;;;4.95;;
20298;SDS011;10308;42.688;23.256;2023-08-30T11:06:05;6.20;;;5.60;;
20298;SDS011;10308;42.688;23.256;2023-08-30T11:08:32;6.75;;;5.15;;
20298;SDS011;10308;42.688;23.256;2023-08-30T11:11:02;5.93;;;5.45;;
20298;SDS011;10308;42.688;23.256;2023-08-30T11:13:30;5.28;;;4.78;;
20298;SDS011;10308;42.688;23.256;2023-08-30T11:15:59;7.43;;;4.57;;
20298;SDS011;10308;42.688;23.256;2023-08-30T11:18:29;5.22;;;4.53;;
20298;SDS011;10308;42.688;23.256;2023-08-30T11:20:58;4.90;;;4.40;;
20298;SDS011;10308;42.688;23.256;2023-08-30T11:23:25;4.80;;;4.40;;
20298;SDS011;10308;42.688;23.256;2023-08-30T11:25:53;5.35;;;4.15;;
20298;SDS011;10308;42.688;23.256;2023-08-30T11:28:23;5.30;;;4.20;;
20298;SDS011;10308;42.688;23.256;2023-08-30T11:30:53;5.63;;;4.75;;
20298;SDS011;10308;42.688;23.256;2023-08-30T11:33:20;5.60;;;4.18;;
20298;SDS011;10308;42.688;23.256;2023-08-30T11:35:48;4.45;;;4.05;;
20298;SDS011;10308;42.688;23.256;2023-08-30T11:38:15;4.93;;;3.75;;
20298;SDS011;10308;42.688;23.256;2023-08-30T11:40:44;4.85;;;3.83;;
20298;SDS011;10308;42.688;23.256;2023-08-30T11:43:12;5.25;;;4.22;;
20298;SDS011;10308;42.688;23.256;2023-08-30T11:45:39;4.72;;;4.32;;
20298;SDS011;10308;42.688;23.256;2023-08-30T11:48:06;4.90;;;4.05;;
20298;SDS011;10308;42.688;23.256;2023-08-30T11:50:33;5.88;;;4.35;;
20298;SDS011;10308;42.688;23.256;2023-08-30T11:53:00;5.50;;;4.55;;
20298;SDS011;10308;42.688;23.256;2023-08-30T11:55:27;5.60;;;4.38;;
20298;SDS011;10308;42.688;23.256;2023-08-30T11:57:54;5.03;;;4.30;;
20298;SDS011;10308;42.688;23.256;2023-08-30T12:00:23;5.40;;;4.85;;
20298;SDS011;10308;42.688;23.256;2023-08-30T12:02:51;5.53;;;4.95;;
20298;SDS011;10308;42.688;23.256;2023-08-30T12:05:18;5.32;;;4.82;;
20298;SDS011;10308;42.688;23.256;2023-08-30T12:07:45;6.30;;;4.88;;
20298;SDS011;10308;42.688;23.256;2023-08-30T12:10:12;6.00;;;5.40;;
20298;SDS011;10308;42.688;23.256;2023-08-30T12:12:44;5.72;;;5.10;;
20298;SDS011;10308;42.688;23.256;2023-08-30T12:15:11;5.88;;;4.90;;
20298;SDS011;10308;42.688;23.256;2023-08-30T12:17:41;5.60;;;5.10;;
20298;SDS011;10308;42.688;23.256;2023-08-30T12:20:14;5.82;;;4.50;;
20298;SDS011;10308;42.688;23.256;2023-08-30T12:22:41;5.63;;;4.88;;
20298;SDS011;10308;42.688;23.256;2023-08-30T12:25:18;4.80;;;4.40;;
20298;SDS011;10308;42.688;23.256;2023-08-30T12:27:45;6.47;;;4.47;;
20298;SDS011;10308;42.688;23.256;2023-08-30T12:30:12;5.72;;;4.85;;
20298;SDS011;10308;42.688;23.256;2023-08-30T12:32:41;5.90;;;5.28;;
20298;SDS011;10308;42.688;23.256;2023-08-30T12:35:08;5.65;;;4.88;;
20298;SDS011;10308;42.688;23.256;2023-08-30T12:37:35;5.97;;;4.50;;
20298;SDS011;10308;42.688;23.256;2023-08-30T12:40:01;5.20;;;4.18;;
20298;SDS011;10308;42.688;23.256;2023-08-30T12:42:29;4.82;;;4.43;;
20298;SDS011;10308;42.688;23.256;2023-08-30T12:44:56;4.85;;;4.35;;
20298;SDS011;10308;42.688;23.256;2023-08-30T12:47:22;4.70;;;4.30;;
20298;SDS011;10308;42.688;23.256;2023-08-30T12:49:51;4.88;;;4.30;;
20298;SDS011;10308;42.688;23.256;2023-08-30T12:52:17;5.80;;;4.68;;
20298;SDS011;10308;42.688;23.256;2023-08-30T12:54:44;5.25;;;4.75;;
20298;SDS011;10308;42.688;23.256;2023-08-30T12:57:11;4.93;;;4.43;;
20298;SDS011;10308;42.688;23.256;2023-08-30T12:59:37;6.15;;;4.63;;
20298;SDS011;10308;42.688;23.256;2023-08-30T13:02:04;5.38;;;3.95;;
20298;SDS011;10308;42.688;23.256;2023-08-30T13:04:31;6.30;;;4.68;;
20298;SDS011;10308;42.688;23.256;2023-08-30T13:07:00;5.13;;;4.28;;
20298;SDS011;10308;42.688;23.256;2023-08-30T13:09:26;4.57;;;4.18;;
20298;SDS011;10308;42.688;23.256;2023-08-30T13:11:53;5.20;;;4.68;;
20298;SDS011;10308;42.688;23.256;2023-08-30T13:14:20;5.32;;;4.45;;
20298;SDS011;10308;42.688;23.256;2023-08-30T13:16:47;4.57;;;4.00;;
20298;SDS011;10308;42.688;23.256;2023-08-30T13:19:15;6.18;;;4.20;;
20298;SDS011;10308;42.688;23.256;2023-08-30T13:21:41;4.80;;;4.30;;
20298;SDS011;10308;42.688;23.256;2023-08-30T13:24:10;4.80;;;4.13;;
20298;SDS011;10308;42.688;23.256;2023-08-30T13:26:37;4.05;;;3.65;;
20298;SDS011;10308;42.688;23.256;2023-08-30T13:29:04;5.80;;;3.97;;
20298;SDS011;10308;42.688;23.256;2023-08-30T13:31:31;4.53;;;4.05;;
20298;SDS011;10308;42.688;23.256;2023-08-30T13:33:57;4.95;;;4.28;;
20298;SDS011;10308;42.688;23.256;2023-08-30T13:36:24;4.00;;;3.60;;
20298;SDS011;10308;42.688;23.256;2023-08-30T13:38:51;5.57;;;3.90;;
20298;SDS011;10308;42.688;23.256;2023-08-30T13:41:19;5.50;;;4.28;;
20298;SDS011;10308;42.688;23.256;2023-08-30T13:43:46;4.95;;;4.25;;
20298;SDS011;10308;42.688;23.256;2023-08-30T13:46:13;5.07;;;3.90;;
20298;SDS011;10308;42.688;23.256;2023-08-30T13:48:39;5.60;;;4.03;;
20298;SDS011;10308;42.688;23.256;2023-08-30T13:51:06;5.22;;;4.43;;
20298;SDS011;10308;42.688;23.256;2023-08-30T13:53:33;4.45;;;3.95;;
20298;SDS011;10308;42.688;23.256;2023-08-30T13:56:00;4.68;;;4.18;;
20298;SDS011;10308;42.688;23.256;2023-08-30T13:58:28;5.43;;;4.72;;
20298;SDS011;10308;42.688;23.256;2023-08-30T14:00:55;6.55;;;4.43;;
20298;SDS011;10308;42.688;23.256;2023-08-30T14:03:22;5.03;;;3.83;;
20298;SDS011;10308;42.688;23.256;2023-08-30T14:05:49;5.03;;;3.75;;
20298;SDS011;10308;42.688;23.256;2023-08-30T14:08:16;4.47;;;4.00;;
20298;SDS011;10308;42.688;23.256;2023-08-30T14:10:43;4.57;;;3.85;;
20298;SDS011;10308;42.688;23.256;2023-08-30T14:13:11;4.28;;;3.88;;
20298;SDS011;10308;42.688;23.256;2023-08-30T14:15:40;3.92;;;3.53;;
20298;SDS011;10308;42.688;23.256;2023-08-30T14:18:07;5.07;;;3.60;;
20298;SDS011;10308;42.688;23.256;2023-08-30T14:20:33;5.30;;;3.70;;
20298;SDS011;10308;42.688;23.256;2023-08-30T14:23:00;4.30;;;3.47;;
20298;SDS011;10308;42.688;23.256;2023-08-30T14:25:27;3.75;;;3.35;;
20298;SDS011;10308;42.688;23.256;2023-08-30T14:27:53;4.10;;;3.63;;
20298;SDS011;10308;42.688;23.256;2023-08-30T14:30:21;4.05;;;3.65;;
20298;SDS011;10308;42.688;23.256;2023-08-30T14:32:49;5.75;;;3.58;;
20298;SDS011;10308;42.688;23.256;2023-08-30T14:35:17;3.92;;;3.53;;